METAR Analyzer

一覧表示

Hello, Guest. (Login)

YSSY/SYD  -  シドニー・キングスフォード・スミス

観測日時
2022-09-30 06:30 (UTC) (27分前)
気温
15
露点
14
湿数
1
相対湿度
93.7%
QNH
1024hPa
推定現地気圧
1023.3hPa
推定海面気圧
1024.0hPa
体感温度
3.7
(無風時)
17
HI
15
気温前日比
-2
体感温度前日比
-1.8
HI前日比
-2.1
水平視程
5000m
鉛直視程
データなし
雲底高度
2000ft AGL
V/I
VMC (VFR)
RVR
No RVR data
卓越風
16kt from 170°
ガスト
No gust
降水
弱いしゅう雨性の雨
その他の天気
報告なし
散在する雲 @ 1300ft AGL / 隙間のある雲 @ 2000ft AGL / 隙間のある雲 @ 3000ft AGL

YSSY 300630Z 17016KT 5000 -SHRA SCT013 BKN020 BKN030 15/14 Q1024

NZAA/AKL  -  Auckland

観測日時
2022-09-30 06:30 (UTC) (27分前)
気温
17
露点
16
湿数
1
相対湿度
93.8%
QNH
1014hPa
推定現地気圧
1013.2hPa
推定海面気圧
1014.0hPa
体感温度
11.3
(無風時)
18.8
HI
17.2
気温前日比
+1
体感温度前日比
+4.4
HI前日比
+1.2
水平視程
>10000m / 一時 6000m
鉛直視程
データなし
雲底高度
No dense clouds / 一時 1200ft AGL
V/I
VMC (VFR)
RVR
No RVR data
卓越風
4kt from 30° (10° ~ 100°)
ガスト
No gust
降水
弱い雨
降水 (一時)
中程度の雨
その他の天気
報告なし
少しの雲 @ 800ft AGL

NZAA 300630Z AUTO 03004KT 010V100 9999 -RA FEW008/// 17/16 Q1014 TEMPO 6000 RA BKN012

NZWN/WLG  -  Wellington

観測日時
2022-09-30 06:30 (UTC) (27分前)
気温
9
露点
4
湿数
5
相対湿度
70.8%
QNH
1024hPa
推定現地気圧
1022.4hPa
推定海面気圧
1024.0hPa
体感温度
-4.1
(無風時)
11.9
HI
7.8
気温前日比
-5
体感温度前日比
-6.5
HI前日比
-6.1
水平視程
>10000m
鉛直視程
データなし
雲底高度
6000ft AGL
V/I
VMC (VFR)
RVR
No RVR data
卓越風
17kt from 140°
ガスト
27kt
降水
報告なし
その他の天気
報告なし
隙間のある雲 @ 6000ft AGL

NZWN 300630Z AUTO 14017G27KT 9999 BKN060/// 09/04 Q1024 NOSIG

NZCH/CHC  -  Christchurch

観測日時
2022-09-30 06:30 (UTC) (27分前)
気温
8
露点
3
湿数
5
相対湿度
70.6%
QNH
1026hPa
推定現地気圧
1021.5hPa
推定海面気圧
1026.1hPa
体感温度
1
(無風時)
11.1
HI
6.7
気温前日比
-2
体感温度前日比
+2.4
HI前日比
-2.6
水平視程
>10000m
鉛直視程
データなし
雲底高度
4100ft AGL
V/I
VMC (VFR)
RVR
No RVR data
卓越風
4kt from 350°
ガスト
No gust
降水
報告なし
その他の天気
報告なし
隙間のある雲 @ 4100ft AGL

NZCH 300630Z AUTO 35004KT 9999 BKN041/// 08/03 Q1026 NOSIG

NZQN/ZQN  -  Queenstown

No data in
2022-09-30 04:57 ~ 2022-09-30 06:57 (UTC)
61.2msec